Aérodrome :
LOGIN :

S'inscrire | Disclaimer

   EN    FR    IT 

 










Légende :    VFR   VFR Marginal   IFR   IFR Intensif   IFR Très Intensif
Visi : 
Plafond : 
>= 8 km
>= 3000ft
5 à 8 km
1000 à 3000 ft
1500m à 5 km
500 à 1000 ft
800 à 1500m
200 à 500 ft
< 800m
< 200 ft
Symboles :   Orages  Brouillard  Fortes neiges  Fortes précipitations  Vent > 20 kt
SIGMETs :   Divers  Orages  Givrage  Turbulence  Onde Orograph.  Cendres Volcan.






- Altitude de l'aérodrome : 1548 ft


LKNA - Náměšť Air Base

DERNIER METAR :
  • 250430Z 12006KT 4000 BR OVC002 13/13 Q1018 RMK BLACK

METARs EXPIRÉS :
  • 250400Z 12006KT 5000 BR OVC002 13/13 Q1018 RMK BLACK
  • 250341Z 12006KT 6000 OVC002 13/13 Q1018 RMK BLACK
  • 250330Z 10003KT 9999 OVC010 13/12 Q1018 RMK BLACK
  • 250300Z 10003KT 9999 OVC011 13/12 Q1018 RMK BLACK
  • 250230Z 06003KT 040V100 9999 OVC013 13/12 Q1018 RMK BLACK
  • 250200Z 07003KT 9999 OVC013 13/12 Q1018 RMK BLACK
  • 250130Z 09002KT 9999 SCT017 BKN100 13/12 Q1018 RMK BLACK
  • 250030Z 11004KT 2000 0500S BCFG SCT001 13/13 Q1019 RMK BLACK
  • 250000Z 13004KT 1000 0300S R30/P2000 BCFG VV001 13/13 Q1019 RMK BLACK

TAF TAF LKNA
Valide du 25 à 00h jusqu'au 26 à 00h UTC


242300Z 2500/2600 111006KT CAVOK
PROB40 2501/2507 2500 BR BKN005
TEMPO 2508/2521 14012KT 5000 SHRA BKN025TCU
PROB40
TEMPO 2511/2519 14014KT 4000 TSRA BKN015CB



MET'MAP, la Météo Aéronautique d'un coup d'oeil ! - Copyright ORBIFLY Décembre 2007 - Disclaimer

ORBIFLY MET'MAP TEAM :

Programmation & Développement : Alexandra Zaïnal
Sur une idée originale de : Baudouin d'Aumeries
Soutien technique & logistique : Manuel Goepfert
Assistance : Marc-Olivier Méhu




SOURCES & CREDITS :

   NOAA